sensor_id;sensor_type;location;lat;lon;timestamp;temperature;humidity
21163;DHT22;10739;52.198;20.908;2023-08-20T00:02:18;21.40;99.90
21163;DHT22;10739;52.198;20.908;2023-08-20T00:04:46;21.40;99.90
21163;DHT22;10739;52.198;20.908;2023-08-20T00:07:15;21.40;99.90
21163;DHT22;10739;52.198;20.908;2023-08-20T00:09:44;21.40;99.90
21163;DHT22;10739;52.198;20.908;2023-08-20T00:12:10;21.30;99.90
21163;DHT22;10739;52.198;20.908;2023-08-20T00:17:31;21.40;99.90
21163;DHT22;10739;52.198;20.908;2023-08-20T00:20:03;21.30;99.90
21163;DHT22;10739;52.198;20.908;2023-08-20T00:22:39;21.40;99.90
21163;DHT22;10739;52.198;20.908;2023-08-20T00:25:08;21.30;99.90
21163;DHT22;10739;52.198;20.908;2023-08-20T00:27:35;21.30;99.90
21163;DHT22;10739;52.198;20.908;2023-08-20T00:30:01;21.30;99.90
21163;DHT22;10739;52.198;20.908;2023-08-20T00:32:28;21.20;99.90
21163;DHT22;10739;52.198;20.908;2023-08-20T00:34:54;21.30;99.90
21163;DHT22;10739;52.198;20.908;2023-08-20T00:37:20;21.20;99.90
21163;DHT22;10739;52.198;20.908;2023-08-20T00:39:47;21.20;99.90
21163;DHT22;10739;52.198;20.908;2023-08-20T00:42:13;21.20;99.90
21163;DHT22;10739;52.198;20.908;2023-08-20T00:44:42;21.10;99.90
21163;DHT22;10739;52.198;20.908;2023-08-20T00:47:13;21.10;99.90
21163;DHT22;10739;52.198;20.908;2023-08-20T00:49:40;21.10;99.90
21163;DHT22;10739;52.198;20.908;2023-08-20T00:52:11;21.10;99.90
21163;DHT22;10739;52.198;20.908;2023-08-20T00:54:39;21.00;99.90
21163;DHT22;10739;52.198;20.908;2023-08-20T00:57:06;21.00;99.90
21163;DHT22;10739;52.198;20.908;2023-08-20T00:59:34;21.10;99.90
21163;DHT22;10739;52.198;20.908;2023-08-20T01:02:01;21.00;99.90
21163;DHT22;10739;52.198;20.908;2023-08-20T01:04:29;21.00;99.90
21163;DHT22;10739;52.198;20.908;2023-08-20T01:07:11;21.00;99.90
21163;DHT22;10739;52.198;20.908;2023-08-20T01:12:31;21.00;99.90
21163;DHT22;10739;52.198;20.908;2023-08-20T01:15:00;21.00;99.90
21163;DHT22;10739;52.198;20.908;2023-08-20T01:17:26;21.00;99.90
21163;DHT22;10739;52.198;20.908;2023-08-20T01:19:56;20.90;99.90
21163;DHT22;10739;52.198;20.908;2023-08-20T01:28:31;20.80;99.90
21163;DHT22;10739;52.198;20.908;2023-08-20T01:30:59;20.80;99.90
21163;DHT22;10739;52.198;20.908;2023-08-20T01:33:29;20.80;99.90
21163;DHT22;10739;52.198;20.908;2023-08-20T01:35:56;20.80;99.90
21163;DHT22;10739;52.198;20.908;2023-08-20T01:38:22;20.80;99.90
21163;DHT22;10739;52.198;20.908;2023-08-20T01:40:49;20.80;99.90
21163;DHT22;10739;52.198;20.908;2023-08-20T01:43:15;20.80;99.90
21163;DHT22;10739;52.198;20.908;2023-08-20T01:45:42;20.80;99.90
21163;DHT22;10739;52.198;20.908;2023-08-20T01:48:09;20.80;99.90
21163;DHT22;10739;52.198;20.908;2023-08-20T01:50:35;20.80;99.90
21163;DHT22;10739;52.198;20.908;2023-08-20T01:53:02;20.70;99.90
21163;DHT22;10739;52.198;20.908;2023-08-20T01:55:29;20.80;99.90
21163;DHT22;10739;52.198;20.908;2023-08-20T01:57:55;20.80;99.90
21163;DHT22;10739;52.198;20.908;2023-08-20T02:00:21;20.80;99.90
21163;DHT22;10739;52.198;20.908;2023-08-20T02:02:47;20.80;99.90
21163;DHT22;10739;52.198;20.908;2023-08-20T02:05:14;20.80;99.90
21163;DHT22;10739;52.198;20.908;2023-08-20T02:07:40;20.80;99.90
21163;DHT22;10739;52.198;20.908;2023-08-20T02:10:07;20.70;99.90
21163;DHT22;10739;52.198;20.908;2023-08-20T02:12:34;20.80;99.90
21163;DHT22;10739;52.198;20.908;2023-08-20T02:15:00;20.70;99.90
21163;DHT22;10739;52.198;20.908;2023-08-20T02:17:30;20.70;99.90
21163;DHT22;10739;52.198;20.908;2023-08-20T02:19:57;20.70;99.90
21163;DHT22;10739;52.198;20.908;2023-08-20T02:22:23;20.70;99.90
21163;DHT22;10739;52.198;20.908;2023-08-20T02:24:50;20.60;99.90
21163;DHT22;10739;52.198;20.908;2023-08-20T02:27:16;20.60;99.90
21163;DHT22;10739;52.198;20.908;2023-08-20T02:29:42;20.60;99.90
21163;DHT22;10739;52.198;20.908;2023-08-20T02:32:11;20.60;99.90
21163;DHT22;10739;52.198;20.908;2023-08-20T02:34:38;20.60;99.90
21163;DHT22;10739;52.198;20.908;2023-08-20T02:37:04;20.60;99.90
21163;DHT22;10739;52.198;20.908;2023-08-20T02:39:31;20.60;99.90
21163;DHT22;10739;52.198;20.908;2023-08-20T02:41:57;20.50;99.90
21163;DHT22;10739;52.198;20.908;2023-08-20T02:44:24;20.50;99.90
21163;DHT22;10739;52.198;20.908;2023-08-20T02:46:50;20.50;99.90
21163;DHT22;10739;52.198;20.908;2023-08-20T02:49:18;20.50;99.90
21163;DHT22;10739;52.198;20.908;2023-08-20T02:51:44;20.50;99.90
21163;DHT22;10739;52.198;20.908;2023-08-20T02:54:10;20.60;99.90
21163;DHT22;10739;52.198;20.908;2023-08-20T02:56:36;20.60;99.90
21163;DHT22;10739;52.198;20.908;2023-08-20T02:59:02;20.50;99.90
21163;DHT22;10739;52.198;20.908;2023-08-20T03:01:29;20.60;99.90
21163;DHT22;10739;52.198;20.908;2023-08-20T03:03:55;20.60;99.90
21163;DHT22;10739;52.198;20.908;2023-08-20T03:06:22;20.50;99.90
21163;DHT22;10739;52.198;20.908;2023-08-20T03:08:48;20.40;99.90
21163;DHT22;10739;52.198;20.908;2023-08-20T03:11:14;20.40;99.90
21163;DHT22;10739;52.198;20.908;2023-08-20T03:13:41;20.40;99.90
21163;DHT22;10739;52.198;20.908;2023-08-20T03:16:07;20.60;99.90
21163;DHT22;10739;52.198;20.908;2023-08-20T03:18:33;20.70;99.90
21163;DHT22;10739;52.198;20.908;2023-08-20T03:20:59;20.80;99.90
21163;DHT22;10739;52.198;20.908;2023-08-20T03:23:26;20.90;99.90
21163;DHT22;10739;52.198;20.908;2023-08-20T03:25:53;20.90;99.90
21163;DHT22;10739;52.198;20.908;2023-08-20T03:28:19;20.90;99.90
21163;DHT22;10739;52.198;20.908;2023-08-20T03:30:47;20.90;99.90
21163;DHT22;10739;52.198;20.908;2023-08-20T03:33:13;20.80;99.90
21163;DHT22;10739;52.198;20.908;2023-08-20T03:35:40;20.80;99.90
21163;DHT22;10739;52.198;20.908;2023-08-20T03:38:06;20.70;99.90
21163;DHT22;10739;52.198;20.908;2023-08-20T03:40:32;20.70;99.90
21163;DHT22;10739;52.198;20.908;2023-08-20T03:42:58;20.70;99.90
21163;DHT22;10739;52.198;20.908;2023-08-20T03:45:24;20.70;99.90
21163;DHT22;10739;52.198;20.908;2023-08-20T03:47:51;20.70;99.90
21163;DHT22;10739;52.198;20.908;2023-08-20T03:50:17;20.70;99.90
21163;DHT22;10739;52.198;20.908;2023-08-20T03:52:44;20.70;99.90
21163;DHT22;10739;52.198;20.908;2023-08-20T03:55:10;20.70;99.90
21163;DHT22;10739;52.198;20.908;2023-08-20T03:57:36;20.70;99.90
21163;DHT22;10739;52.198;20.908;2023-08-20T04:00:03;20.70;99.90
21163;DHT22;10739;52.198;20.908;2023-08-20T04:02:29;20.70;99.90
21163;DHT22;10739;52.198;20.908;2023-08-20T04:04:57;20.70;99.90
21163;DHT22;10739;52.198;20.908;2023-08-20T04:07:24;20.70;99.90
21163;DHT22;10739;52.198;20.908;2023-08-20T04:09:50;20.70;99.90
21163;DHT22;10739;52.198;20.908;2023-08-20T04:12:16;20.70;99.90
21163;DHT22;10739;52.198;20.908;2023-08-20T04:14:42;20.70;99.90
21163;DHT22;10739;52.198;20.908;2023-08-20T04:17:08;20.70;99.90
21163;DHT22;10739;52.198;20.908;2023-08-20T04:19:34;20.70;99.90
21163;DHT22;10739;52.198;20.908;2023-08-20T04:22:01;20.80;99.90
21163;DHT22;10739;52.198;20.908;2023-08-20T04:24:27;20.80;99.90
21163;DHT22;10739;52.198;20.908;2023-08-20T04:26:53;20.80;99.90
21163;DHT22;10739;52.198;20.908;2023-08-20T04:29:19;20.90;99.90
21163;DHT22;10739;52.198;20.908;2023-08-20T04:31:45;20.90;99.90
21163;DHT22;10739;52.198;20.908;2023-08-20T04:34:11;20.90;99.90
21163;DHT22;10739;52.198;20.908;2023-08-20T04:36:37;21.00;99.90
21163;DHT22;10739;52.198;20.908;2023-08-20T04:39:04;21.00;99.90
21163;DHT22;10739;52.198;20.908;2023-08-20T04:41:30;21.00;99.90
21163;DHT22;10739;52.198;20.908;2023-08-20T04:43:56;21.10;99.90
21163;DHT22;10739;52.198;20.908;2023-08-20T04:46:22;21.20;99.90
21163;DHT22;10739;52.198;20.908;2023-08-20T04:48:48;21.30;99.90
21163;DHT22;10739;52.198;20.908;2023-08-20T04:51:14;21.40;99.90
21163;DHT22;10739;52.198;20.908;2023-08-20T04:53:40;21.40;99.90
21163;DHT22;10739;52.198;20.908;2023-08-20T04:56:06;21.50;99.90
21163;DHT22;10739;52.198;20.908;2023-08-20T04:58:32;21.60;99.90
21163;DHT22;10739;52.198;20.908;2023-08-20T05:00:58;21.60;99.90
21163;DHT22;10739;52.198;20.908;2023-08-20T05:03:25;21.70;99.90
21163;DHT22;10739;52.198;20.908;2023-08-20T05:05:51;21.80;99.90
21163;DHT22;10739;52.198;20.908;2023-08-20T05:08:17;21.90;99.90
21163;DHT22;10739;52.198;20.908;2023-08-20T05:10:44;22.00;99.90
21163;DHT22;10739;52.198;20.908;2023-08-20T05:13:10;22.10;99.90
21163;DHT22;10739;52.198;20.908;2023-08-20T05:15:37;22.20;99.90
21163;DHT22;10739;52.198;20.908;2023-08-20T05:18:03;22.30;99.90
21163;DHT22;10739;52.198;20.908;2023-08-20T05:20:29;22.30;99.90
21163;DHT22;10739;52.198;20.908;2023-08-20T05:22:55;22.40;99.90
21163;DHT22;10739;52.198;20.908;2023-08-20T05:25:21;22.50;99.90
21163;DHT22;10739;52.198;20.908;2023-08-20T05:27:47;22.60;99.90
21163;DHT22;10739;52.198;20.908;2023-08-20T05:30:14;22.70;99.90
21163;DHT22;10739;52.198;20.908;2023-08-20T05:32:40;22.80;99.90
21163;DHT22;10739;52.198;20.908;2023-08-20T05:35:07;22.80;99.90
21163;DHT22;10739;52.198;20.908;2023-08-20T05:37:33;23.00;99.90
21163;DHT22;10739;52.198;20.908;2023-08-20T05:39:59;23.10;99.90
21163;DHT22;10739;52.198;20.908;2023-08-20T05:42:26;23.10;99.90
21163;DHT22;10739;52.198;20.908;2023-08-20T05:44:52;23.20;99.90
21163;DHT22;10739;52.198;20.908;2023-08-20T05:47:19;23.40;99.90
21163;DHT22;10739;52.198;20.908;2023-08-20T05:49:45;23.50;99.90
21163;DHT22;10739;52.198;20.908;2023-08-20T05:52:11;23.60;99.90
21163;DHT22;10739;52.198;20.908;2023-08-20T05:54:37;23.70;99.90
21163;DHT22;10739;52.198;20.908;2023-08-20T05:57:03;23.80;99.90
21163;DHT22;10739;52.198;20.908;2023-08-20T05:59:29;23.90;99.90
21163;DHT22;10739;52.198;20.908;2023-08-20T06:01:55;24.00;99.90
21163;DHT22;10739;52.198;20.908;2023-08-20T06:04:22;24.10;99.90
21163;DHT22;10739;52.198;20.908;2023-08-20T06:06:48;24.20;99.90
21163;DHT22;10739;52.198;20.908;2023-08-20T06:09:14;24.30;99.90
21163;DHT22;10739;52.198;20.908;2023-08-20T06:11:40;24.50;99.90
21163;DHT22;10739;52.198;20.908;2023-08-20T06:14:06;24.60;99.90
21163;DHT22;10739;52.198;20.908;2023-08-20T06:16:32;24.60;99.90
21163;DHT22;10739;52.198;20.908;2023-08-20T06:18:58;24.80;99.90
21163;DHT22;10739;52.198;20.908;2023-08-20T06:21:25;24.80;99.90
21163;DHT22;10739;52.198;20.908;2023-08-20T06:23:51;24.90;99.90
21163;DHT22;10739;52.198;20.908;2023-08-20T06:26:17;25.00;99.90
21163;DHT22;10739;52.198;20.908;2023-08-20T06:28:44;25.10;99.90
21163;DHT22;10739;52.198;20.908;2023-08-20T06:31:10;25.30;99.90
21163;DHT22;10739;52.198;20.908;2023-08-20T06:33:36;25.30;99.90
21163;DHT22;10739;52.198;20.908;2023-08-20T06:36:02;25.40;99.90
21163;DHT22;10739;52.198;20.908;2023-08-20T06:38:28;25.60;99.90
21163;DHT22;10739;52.198;20.908;2023-08-20T06:40:55;25.70;99.90
21163;DHT22;10739;52.198;20.908;2023-08-20T06:43:21;25.80;99.90
21163;DHT22;10739;52.198;20.908;2023-08-20T06:45:47;26.00;99.90
21163;DHT22;10739;52.198;20.908;2023-08-20T06:48:13;26.10;99.90
21163;DHT22;10739;52.198;20.908;2023-08-20T06:50:41;26.10;99.90
21163;DHT22;10739;52.198;20.908;2023-08-20T06:53:07;26.20;99.90
21163;DHT22;10739;52.198;20.908;2023-08-20T06:55:33;26.30;99.90
21163;DHT22;10739;52.198;20.908;2023-08-20T06:58:00;26.50;99.90
21163;DHT22;10739;52.198;20.908;2023-08-20T07:00:26;26.70;99.90
21163;DHT22;10739;52.198;20.908;2023-08-20T07:02:52;26.80;99.90
21163;DHT22;10739;52.198;20.908;2023-08-20T07:05:18;26.80;99.90
21163;DHT22;10739;52.198;20.908;2023-08-20T07:07:45;26.90;99.90
21163;DHT22;10739;52.198;20.908;2023-08-20T07:10:12;27.10;99.90
21163;DHT22;10739;52.198;20.908;2023-08-20T07:12:38;27.20;99.90
21163;DHT22;10739;52.198;20.908;2023-08-20T07:15:05;27.30;99.90
21163;DHT22;10739;52.198;20.908;2023-08-20T07:17:32;27.50;99.90
21163;DHT22;10739;52.198;20.908;2023-08-20T07:19:58;27.60;99.90
21163;DHT22;10739;52.198;20.908;2023-08-20T07:22:24;27.80;99.90
21163;DHT22;10739;52.198;20.908;2023-08-20T07:24:50;27.90;99.90
21163;DHT22;10739;52.198;20.908;2023-08-20T07:27:16;28.10;99.90
21163;DHT22;10739;52.198;20.908;2023-08-20T07:29:43;28.20;99.90
21163;DHT22;10739;52.198;20.908;2023-08-20T07:32:09;28.20;99.90
21163;DHT22;10739;52.198;20.908;2023-08-20T07:34:36;28.30;99.90
21163;DHT22;10739;52.198;20.908;2023-08-20T07:37:02;28.40;99.90
21163;DHT22;10739;52.198;20.908;2023-08-20T07:39:30;28.60;99.90
21163;DHT22;10739;52.198;20.908;2023-08-20T07:41:57;28.70;99.90
21163;DHT22;10739;52.198;20.908;2023-08-20T07:44:23;28.80;99.90
21163;DHT22;10739;52.198;20.908;2023-08-20T07:46:49;28.90;99.90
21163;DHT22;10739;52.198;20.908;2023-08-20T07:49:15;29.00;99.90
21163;DHT22;10739;52.198;20.908;2023-08-20T07:51:41;29.10;99.90
21163;DHT22;10739;52.198;20.908;2023-08-20T07:54:08;29.30;99.90
21163;DHT22;10739;52.198;20.908;2023-08-20T07:56:34;29.40;99.90
21163;DHT22;10739;52.198;20.908;2023-08-20T07:59:00;29.20;99.90
21163;DHT22;10739;52.198;20.908;2023-08-20T08:01:26;29.00;99.90
21163;DHT22;10739;52.198;20.908;2023-08-20T08:03:52;28.80;99.90
21163;DHT22;10739;52.198;20.908;2023-08-20T08:06:18;28.80;99.90
21163;DHT22;10739;52.198;20.908;2023-08-20T08:08:46;29.00;99.90
21163;DHT22;10739;52.198;20.908;2023-08-20T08:11:12;29.10;99.90
21163;DHT22;10739;52.198;20.908;2023-08-20T08:13:39;29.30;99.90
21163;DHT22;10739;52.198;20.908;2023-08-20T08:16:05;29.20;99.90
21163;DHT22;10739;52.198;20.908;2023-08-20T08:18:31;29.10;99.90
21163;DHT22;10739;52.198;20.908;2023-08-20T08:20:57;29.40;99.90
21163;DHT22;10739;52.198;20.908;2023-08-20T08:23:24;29.70;99.90
21163;DHT22;10739;52.198;20.908;2023-08-20T08:25:57;29.80;99.90
21163;DHT22;10739;52.198;20.908;2023-08-20T08:28:36;30.00;99.90
21163;DHT22;10739;52.198;20.908;2023-08-20T08:31:12;30.00;99.90
21163;DHT22;10739;52.198;20.908;2023-08-20T08:33:38;29.70;99.90
21163;DHT22;10739;52.198;20.908;2023-08-20T08:36:04;29.80;99.90
21163;DHT22;10739;52.198;20.908;2023-08-20T08:38:31;30.10;99.90
21163;DHT22;10739;52.198;20.908;2023-08-20T08:40:57;30.50;99.90
21163;DHT22;10739;52.198;20.908;2023-08-20T08:43:25;30.20;99.90
21163;DHT22;10739;52.198;20.908;2023-08-20T08:45:56;30.30;99.90
21163;DHT22;10739;52.198;20.908;2023-08-20T08:48:24;30.70;99.90
21163;DHT22;10739;52.198;20.908;2023-08-20T08:50:51;31.00;99.90
21163;DHT22;10739;52.198;20.908;2023-08-20T08:53:18;31.30;99.90
21163;DHT22;10739;52.198;20.908;2023-08-20T08:55:45;31.40;99.90
21163;DHT22;10739;52.198;20.908;2023-08-20T08:58:11;31.50;99.90
21163;DHT22;10739;52.198;20.908;2023-08-20T09:00:37;31.40;99.90
21163;DHT22;10739;52.198;20.908;2023-08-20T09:03:03;31.10;99.90
21163;DHT22;10739;52.198;20.908;2023-08-20T09:05:30;31.20;99.90
21163;DHT22;10739;52.198;20.908;2023-08-20T09:07:56;31.50;99.90
21163;DHT22;10739;52.198;20.908;2023-08-20T09:10:26;32.10;99.80
21163;DHT22;10739;52.198;20.908;2023-08-20T09:12:54;32.60;99.90
21163;DHT22;10739;52.198;20.908;2023-08-20T09:15:31;33.30;99.00
21163;DHT22;10739;52.198;20.908;2023-08-20T09:18:01;34.00;97.50
21163;DHT22;10739;52.198;20.908;2023-08-20T09:20:36;34.50;97.30
21163;DHT22;10739;52.198;20.908;2023-08-20T09:23:03;34.60;96.20
21163;DHT22;10739;52.198;20.908;2023-08-20T09:25:36;35.00;95.10
21163;DHT22;10739;52.198;20.908;2023-08-20T09:28:05;34.60;95.20
21163;DHT22;10739;52.198;20.908;2023-08-20T09:30:32;34.70;95.60
21163;DHT22;10739;52.198;20.908;2023-08-20T09:33:11;35.40;95.50
21163;DHT22;10739;52.198;20.908;2023-08-20T09:35:48;35.90;94.60
21163;DHT22;10739;52.198;20.908;2023-08-20T09:38:19;36.10;91.40
21163;DHT22;10739;52.198;20.908;2023-08-20T09:40:54;35.30;91.60
21163;DHT22;10739;52.198;20.908;2023-08-20T09:43:25;35.50;91.30
21163;DHT22;10739;52.198;20.908;2023-08-20T09:46:00;35.20;91.80
21163;DHT22;10739;52.198;20.908;2023-08-20T09:48:33;35.50;91.10
21163;DHT22;10739;52.198;20.908;2023-08-20T09:51:11;35.90;91.10
21163;DHT22;10739;52.198;20.908;2023-08-20T09:53:49;36.10;90.40
21163;DHT22;10739;52.198;20.908;2023-08-20T09:56:30;36.40;90.30
21163;DHT22;10739;52.198;20.908;2023-08-20T09:58:58;36.80;89.30
21163;DHT22;10739;52.198;20.908;2023-08-20T10:01:25;37.00;85.70
21163;DHT22;10739;52.198;20.908;2023-08-20T10:03:53;37.20;86.30
21163;DHT22;10739;52.198;20.908;2023-08-20T10:06:20;37.70;84.40
21163;DHT22;10739;52.198;20.908;2023-08-20T10:08:46;38.00;84.60
21163;DHT22;10739;52.198;20.908;2023-08-20T10:11:15;38.00;83.10
21163;DHT22;10739;52.198;20.908;2023-08-20T10:13:42;36.40;84.20
21163;DHT22;10739;52.198;20.908;2023-08-20T10:16:11;36.60;85.70
21163;DHT22;10739;52.198;20.908;2023-08-20T10:18:37;36.90;84.00
21163;DHT22;10739;52.198;20.908;2023-08-20T10:21:05;36.90;83.10
21163;DHT22;10739;52.198;20.908;2023-08-20T10:23:34;36.60;84.60
21163;DHT22;10739;52.198;20.908;2023-08-20T10:26:08;37.30;83.30
21163;DHT22;10739;52.198;20.908;2023-08-20T10:28:36;36.50;83.20
21163;DHT22;10739;52.198;20.908;2023-08-20T10:31:07;37.10;85.30
21163;DHT22;10739;52.198;20.908;2023-08-20T10:33:48;37.70;81.00
21163;DHT22;10739;52.198;20.908;2023-08-20T10:36:22;37.30;80.20
21163;DHT22;10739;52.198;20.908;2023-08-20T10:38:52;36.40;80.30
21163;DHT22;10739;52.198;20.908;2023-08-20T10:41:28;36.40;82.10
21163;DHT22;10739;52.198;20.908;2023-08-20T10:43:58;35.30;82.50
21163;DHT22;10739;52.198;20.908;2023-08-20T10:46:27;35.20;81.30
21163;DHT22;10739;52.198;20.908;2023-08-20T10:48:57;35.00;83.10
21163;DHT22;10739;52.198;20.908;2023-08-20T10:51:33;34.70;84.60
21163;DHT22;10739;52.198;20.908;2023-08-20T10:59:08;36.10;82.00
21163;DHT22;10739;52.198;20.908;2023-08-20T11:01:35;36.70;84.00
21163;DHT22;10739;52.198;20.908;2023-08-20T11:04:04;36.80;80.80
21163;DHT22;10739;52.198;20.908;2023-08-20T11:06:33;36.90;78.90
21163;DHT22;10739;52.198;20.908;2023-08-20T11:09:00;36.80;79.50
21163;DHT22;10739;52.198;20.908;2023-08-20T11:11:30;37.20;80.30
21163;DHT22;10739;52.198;20.908;2023-08-20T11:14:03;37.30;80.50
21163;DHT22;10739;52.198;20.908;2023-08-20T11:16:31;36.90;79.90
21163;DHT22;10739;52.198;20.908;2023-08-20T11:18:57;37.20;80.80
21163;DHT22;10739;52.198;20.908;2023-08-20T11:21:23;37.90;78.90
21163;DHT22;10739;52.198;20.908;2023-08-20T11:23:50;38.00;78.10
21163;DHT22;10739;52.198;20.908;2023-08-20T11:26:21;37.70;77.00
21163;DHT22;10739;52.198;20.908;2023-08-20T11:28:47;36.30;79.80
21163;DHT22;10739;52.198;20.908;2023-08-20T11:31:13;36.40;79.70
21163;DHT22;10739;52.198;20.908;2023-08-20T11:33:39;36.80;79.60
21163;DHT22;10739;52.198;20.908;2023-08-20T11:36:06;37.20;79.10
21163;DHT22;10739;52.198;20.908;2023-08-20T11:38:33;37.10;77.70
21163;DHT22;10739;52.198;20.908;2023-08-20T11:40:59;36.90;79.10
21163;DHT22;10739;52.198;20.908;2023-08-20T11:43:29;37.20;74.70
21163;DHT22;10739;52.198;20.908;2023-08-20T11:45:55;36.80;75.60
21163;DHT22;10739;52.198;20.908;2023-08-20T11:48:22;36.10;79.40
21163;DHT22;10739;52.198;20.908;2023-08-20T11:50:52;35.60;81.30
21163;DHT22;10739;52.198;20.908;2023-08-20T11:53:22;35.20;81.30
21163;DHT22;10739;52.198;20.908;2023-08-20T11:55:49;35.60;79.70
21163;DHT22;10739;52.198;20.908;2023-08-20T11:58:15;36.10;81.20
21163;DHT22;10739;52.198;20.908;2023-08-20T12:00:49;36.20;79.00
21163;DHT22;10739;52.198;20.908;2023-08-20T12:03:18;35.10;80.40
21163;DHT22;10739;52.198;20.908;2023-08-20T12:05:45;34.50;81.90
21163;DHT22;10739;52.198;20.908;2023-08-20T12:08:15;34.20;83.70
21163;DHT22;10739;52.198;20.908;2023-08-20T12:10:44;34.20;83.10
21163;DHT22;10739;52.198;20.908;2023-08-20T12:13:10;34.60;82.90
21163;DHT22;10739;52.198;20.908;2023-08-20T12:15:37;35.10;80.80
21163;DHT22;10739;52.198;20.908;2023-08-20T12:18:04;35.90;80.00
21163;DHT22;10739;52.198;20.908;2023-08-20T12:20:34;36.30;78.00
21163;DHT22;10739;52.198;20.908;2023-08-20T12:23:06;36.40;75.90
21163;DHT22;10739;52.198;20.908;2023-08-20T12:25:34;37.40;75.20
21163;DHT22;10739;52.198;20.908;2023-08-20T12:28:02;37.60;74.10
21163;DHT22;10739;52.198;20.908;2023-08-20T12:30:32;35.90;75.20
21163;DHT22;10739;52.198;20.908;2023-08-20T12:33:02;36.40;75.10
21163;DHT22;10739;52.198;20.908;2023-08-20T12:35:29;37.70;76.20
21163;DHT22;10739;52.198;20.908;2023-08-20T12:37:55;38.30;73.60
21163;DHT22;10739;52.198;20.908;2023-08-20T12:40:21;38.70;70.80
21163;DHT22;10739;52.198;20.908;2023-08-20T12:42:47;38.60;71.40
21163;DHT22;10739;52.198;20.908;2023-08-20T12:45:14;38.80;70.90
21163;DHT22;10739;52.198;20.908;2023-08-20T12:47:40;38.40;70.60
21163;DHT22;10739;52.198;20.908;2023-08-20T12:50:06;36.70;72.30
21163;DHT22;10739;52.198;20.908;2023-08-20T12:52:33;36.50;73.90
21163;DHT22;10739;52.198;20.908;2023-08-20T12:54:59;36.70;74.50
21163;DHT22;10739;52.198;20.908;2023-08-20T12:57:26;36.80;74.30
21163;DHT22;10739;52.198;20.908;2023-08-20T12:59:52;36.50;73.50
21163;DHT22;10739;52.198;20.908;2023-08-20T13:02:19;36.40;74.70
21163;DHT22;10739;52.198;20.908;2023-08-20T13:04:46;36.00;75.20
21163;DHT22;10739;52.198;20.908;2023-08-20T13:07:13;36.00;75.40
21163;DHT22;10739;52.198;20.908;2023-08-20T13:09:39;36.20;75.10
21163;DHT22;10739;52.198;20.908;2023-08-20T13:12:06;36.50;75.20
21163;DHT22;10739;52.198;20.908;2023-08-20T13:14:36;36.20;74.70
21163;DHT22;10739;52.198;20.908;2023-08-20T13:17:03;35.90;75.10
21163;DHT22;10739;52.198;20.908;2023-08-20T13:19:29;36.10;75.60
21163;DHT22;10739;52.198;20.908;2023-08-20T13:21:55;36.20;74.80
21163;DHT22;10739;52.198;20.908;2023-08-20T13:24:21;36.40;74.00
21163;DHT22;10739;52.198;20.908;2023-08-20T13:26:47;36.40;74.80
21163;DHT22;10739;52.198;20.908;2023-08-20T13:29:13;36.70;74.50
21163;DHT22;10739;52.198;20.908;2023-08-20T13:31:40;36.80;73.90
21163;DHT22;10739;52.198;20.908;2023-08-20T13:34:06;37.00;72.30
21163;DHT22;10739;52.198;20.908;2023-08-20T13:36:32;36.80;73.00
21163;DHT22;10739;52.198;20.908;2023-08-20T13:38:58;36.90;75.00
21163;DHT22;10739;52.198;20.908;2023-08-20T13:41:25;37.20;73.30
21163;DHT22;10739;52.198;20.908;2023-08-20T13:43:51;37.30;73.70
21163;DHT22;10739;52.198;20.908;2023-08-20T13:46:17;37.30;72.20
21163;DHT22;10739;52.198;20.908;2023-08-20T13:48:43;36.60;73.40
21163;DHT22;10739;52.198;20.908;2023-08-20T13:51:10;36.50;72.00
21163;DHT22;10739;52.198;20.908;2023-08-20T13:53:36;36.60;73.10
21163;DHT22;10739;52.198;20.908;2023-08-20T13:56:02;37.00;73.20
21163;DHT22;10739;52.198;20.908;2023-08-20T13:58:28;37.10;72.80
21163;DHT22;10739;52.198;20.908;2023-08-20T14:00:55;37.20;72.50
21163;DHT22;10739;52.198;20.908;2023-08-20T14:03:21;37.40;71.10
21163;DHT22;10739;52.198;20.908;2023-08-20T14:05:47;37.60;71.10
21163;DHT22;10739;52.198;20.908;2023-08-20T14:08:14;37.20;71.70
21163;DHT22;10739;52.198;20.908;2023-08-20T14:10:40;36.20;71.90
21163;DHT22;10739;52.198;20.908;2023-08-20T14:13:06;36.20;74.10
21163;DHT22;10739;52.198;20.908;2023-08-20T14:15:32;36.50;73.50
21163;DHT22;10739;52.198;20.908;2023-08-20T14:17:58;36.30;73.30
21163;DHT22;10739;52.198;20.908;2023-08-20T14:20:24;35.50;74.10
21163;DHT22;10739;52.198;20.908;2023-08-20T14:22:50;34.50;75.70
21163;DHT22;10739;52.198;20.908;2023-08-20T14:25:17;34.90;76.00
21163;DHT22;10739;52.198;20.908;2023-08-20T14:27:43;35.40;76.20
21163;DHT22;10739;52.198;20.908;2023-08-20T14:30:09;36.00;74.90
21163;DHT22;10739;52.198;20.908;2023-08-20T14:32:36;35.50;73.50
21163;DHT22;10739;52.198;20.908;2023-08-20T14:35:02;35.60;75.30
21163;DHT22;10739;52.198;20.908;2023-08-20T14:37:29;36.10;73.80
21163;DHT22;10739;52.198;20.908;2023-08-20T14:39:55;36.20;73.70
21163;DHT22;10739;52.198;20.908;2023-08-20T14:42:21;35.40;74.20
21163;DHT22;10739;52.198;20.908;2023-08-20T14:44:47;35.40;74.60
21163;DHT22;10739;52.198;20.908;2023-08-20T14:47:14;35.20;74.00
21163;DHT22;10739;52.198;20.908;2023-08-20T14:49:40;35.20;74.10
21163;DHT22;10739;52.198;20.908;2023-08-20T14:52:06;35.10;75.20
21163;DHT22;10739;52.198;20.908;2023-08-20T14:54:32;35.10;74.60
21163;DHT22;10739;52.198;20.908;2023-08-20T14:56:58;35.10;74.60
21163;DHT22;10739;52.198;20.908;2023-08-20T14:59:24;35.10;75.20
21163;DHT22;10739;52.198;20.908;2023-08-20T15:01:51;34.70;75.30
21163;DHT22;10739;52.198;20.908;2023-08-20T15:04:18;34.30;74.90
21163;DHT22;10739;52.198;20.908;2023-08-20T15:06:44;33.80;75.10
21163;DHT22;10739;52.198;20.908;2023-08-20T15:09:10;33.10;77.10
21163;DHT22;10739;52.198;20.908;2023-08-20T15:11:42;32.70;77.90
21163;DHT22;10739;52.198;20.908;2023-08-20T15:14:08;32.40;79.50
21163;DHT22;10739;52.198;20.908;2023-08-20T15:16:35;32.20;80.10
21163;DHT22;10739;52.198;20.908;2023-08-20T15:19:01;32.10;80.20
21163;DHT22;10739;52.198;20.908;2023-08-20T15:21:28;32.00;80.50
21163;DHT22;10739;52.198;20.908;2023-08-20T15:23:54;31.80;79.70
21163;DHT22;10739;52.198;20.908;2023-08-20T15:26:20;31.70;80.90
21163;DHT22;10739;52.198;20.908;2023-08-20T15:28:46;31.70;80.70
21163;DHT22;10739;52.198;20.908;2023-08-20T15:31:12;31.60;81.30
21163;DHT22;10739;52.198;20.908;2023-08-20T15:33:38;31.60;81.30